createdAt,value
2023-02-19T00:01:25.533Z,98787.07
2023-02-19T00:04:26.555Z,98792.98
2023-02-19T00:06:58.229Z,98789.46
2023-02-19T00:09:29.637Z,98790.87
2023-02-19T00:11:58.725Z,98790.05
2023-02-19T00:14:29.459Z,98789.86
2023-02-19T00:16:58.046Z,98788.70
2023-02-19T00:19:26.335Z,98787.98
2023-02-19T00:21:55.006Z,98784.81
2023-02-19T00:24:23.489Z,98789.98
2023-02-19T00:26:54.950Z,98793.27
2023-02-19T00:29:46.734Z,98789.89
2023-02-19T00:32:17.541Z,98791.63
2023-02-19T00:34:48.236Z,98793.42
2023-02-19T00:37:16.616Z,98793.22
2023-02-19T00:39:45.205Z,98789.72
2023-02-19T00:42:13.582Z,98790.46
2023-02-19T00:44:42.994Z,98790.60
2023-02-19T00:47:14.128Z,98796.77
2023-02-19T00:49:42.366Z,98798.50
2023-02-19T00:52:12.115Z,98803.05
2023-02-19T00:54:41.727Z,98803.05
2023-02-19T00:57:11.308Z,98802.67
2023-02-19T00:59:42.606Z,98803.08
2023-02-19T01:02:11.981Z,98806.08
2023-02-19T01:04:42.620Z,98811.55
2023-02-19T01:07:14.381Z,98808.31
2023-02-19T01:09:44.795Z,98811.48
2023-02-19T01:12:21.161Z,98807.42
2023-02-19T01:14:51.084Z,98810.08
2023-02-19T01:17:23.991Z,98814.98
2023-02-19T01:20:02.603Z,98809.97
2023-02-19T01:22:33.030Z,98816.26
2023-02-19T01:25:02.697Z,98817.50
2023-02-19T01:27:31.939Z,98818.98
2023-02-19T01:30:00.459Z,98814.86
2023-02-19T01:32:29.191Z,98817.15
2023-02-19T01:35:03.528Z,98816.65
2023-02-19T01:37:34.963Z,98820.60
2023-02-19T01:40:10.224Z,98818.86
2023-02-19T01:42:44.525Z,98820.39
2023-02-19T01:45:33.684Z,98813.56
2023-02-19T01:48:07.500Z,98823.10
2023-02-19T01:51:12.467Z,98818.02
2023-02-19T01:53:51.974Z,98821.77
2023-02-19T01:56:20.343Z,98824.60
2023-02-19T01:58:49.994Z,98829.60
2023-02-19T02:01:24.074Z,98832.98
2023-02-19T02:04:52.840Z,98845.16
2023-02-19T02:07:39.995Z,98853.01
2023-02-19T02:10:21.192Z,98857.55
2023-02-19T02:12:58.702Z,98858.64
2023-02-19T02:15:41.088Z,98862.94
2023-02-19T02:18:41.727Z,98860.07
2023-02-19T02:21:47.693Z,98862.33
2023-02-19T02:25:05.132Z,98862.27
2023-02-19T02:28:05.246Z,98863.20
2023-02-19T02:30:33.915Z,98863.02
2023-02-19T02:33:09.113Z,98864.22
2023-02-19T02:36:24.476Z,98862.08
2023-02-19T02:38:59.133Z,98863.86
2023-02-19T02:42:42.929Z,98870.89
2023-02-19T02:45:37.439Z,98868.42
2023-02-19T02:48:17.742Z,98870.37
2023-02-19T02:50:53.392Z,98876.31
2023-02-19T02:53:48.062Z,98874.46
2023-02-19T02:56:20.084Z,98880.35
2023-02-19T02:58:51.244Z,98883.16
2023-02-19T03:02:14.544Z,98889.73
2023-02-19T03:05:24.035Z,98898.30
2023-02-19T03:08:01.159Z,98898.21
2023-02-19T03:10:40.473Z,98896.92
2023-02-19T03:13:37.759Z,98895.61
2023-02-19T03:16:41.793Z,98895.95
2023-02-19T03:19:19.352Z,98904.85
2023-02-19T03:22:03.154Z,98908.59
2023-02-19T03:25:13.159Z,98910.37
2023-02-19T03:27:42.415Z,98911.05
2023-02-19T03:30:23.388Z,98910.80
2023-02-19T03:32:59.323Z,98921.43
2023-02-19T03:35:31.275Z,98934.14
2023-02-19T03:38:07.228Z,98936.75
2023-02-19T03:40:42.224Z,98935.05
2023-02-19T03:43:15.470Z,98938.48
2023-02-19T03:45:56.396Z,98939.50
2023-02-19T03:48:32.739Z,98944.66
2023-02-19T03:51:06.610Z,98946.30
2023-02-19T03:54:10.719Z,98941.27
2023-02-19T03:56:56.628Z,98938.27
2023-02-19T03:59:28.674Z,98937.13
2023-02-19T04:02:01.271Z,98931.80
2023-02-19T04:04:49.727Z,98937.85
2023-02-19T04:07:19.152Z,98942.52
2023-02-19T04:09:50.809Z,98945.13
2023-02-19T04:12:24.618Z,98944.14
2023-02-19T04:15:10.928Z,98938.95
2023-02-19T04:17:50.380Z,98944.92
2023-02-19T04:20:31.169Z,98947.61
2023-02-19T04:23:01.084Z,98955.88
2023-02-19T04:25:53.852Z,98958.04
2023-02-19T04:28:24.146Z,98960.86
2023-02-19T04:30:56.808Z,98955.94
2023-02-19T04:33:28.358Z,98971.09
2023-02-19T04:35:57.137Z,98969.23
2023-02-19T04:38:26.026Z,98970.03
2023-02-19T04:41:43.354Z,98975.65
2023-02-19T04:44:13.795Z,98970.51
2023-02-19T04:46:43.328Z,98976.14
2023-02-19T04:49:12.399Z,98975.70
2023-02-19T04:51:41.495Z,98970.33
2023-02-19T04:54:11.802Z,98971.43
2023-02-19T04:56:41.201Z,98978.27
2023-02-19T04:59:12.824Z,98985.70
2023-02-19T05:01:41.815Z,98986.77
2023-02-19T05:04:11.209Z,98990.27
2023-02-19T05:06:41.475Z,98997.52
2023-02-19T05:09:39.943Z,98998.60
2023-02-19T05:12:12.374Z,99000.29
2023-02-19T05:14:44.827Z,98999.33
2023-02-19T05:17:13.760Z,99001.17
2023-02-19T05:19:46.670Z,99003.68
2023-02-19T05:22:22.656Z,99003.39
2023-02-19T05:24:51.319Z,99006.83
2023-02-19T05:31:34.157Z,99019.73
2023-02-19T05:34:08.248Z,99021.78
2023-02-19T05:36:37.528Z,99022.59
2023-02-19T05:39:07.617Z,99027.61
2023-02-19T05:41:36.204Z,99023.64
2023-02-19T05:44:12.547Z,99024.09
2023-02-19T05:46:42.516Z,99026.13
2023-02-19T05:49:12.296Z,99029.08
2023-02-19T05:51:41.916Z,99032.16
2023-02-19T05:54:13.752Z,99030.48
2023-02-19T05:56:42.502Z,99027.37
2023-02-19T05:59:26.218Z,99030.80
2023-02-19T06:02:00.669Z,99028.09
2023-02-19T06:04:30.646Z,99033.27
2023-02-19T06:07:00.745Z,99032.14
2023-02-19T06:13:04.776Z,99031.34
2023-02-19T06:15:35.936Z,99031.84
2023-02-19T06:18:08.154Z,99025.94
2023-02-19T06:20:38.895Z,99026.40
2023-02-19T06:23:11.502Z,99025.36
2023-02-19T06:25:45.744Z,99030.29
2023-02-19T06:28:16.690Z,99033.15
2023-02-19T06:31:05.833Z,99032.17
2023-02-19T06:33:35.098Z,99037.70
2023-02-19T06:36:28.255Z,99039.37
2023-02-19T06:39:00.715Z,99044.85
2023-02-19T06:41:35.642Z,99044.77
2023-02-19T06:44:13.538Z,99039.45
2023-02-19T06:47:02.227Z,99043.05
2023-02-19T06:49:30.755Z,99038.61
2023-02-19T06:52:02.241Z,99033.39
2023-02-19T06:54:36.182Z,99037.27
2023-02-19T06:57:05.496Z,99037.52
2023-02-19T06:59:55.365Z,99038.73
2023-02-19T07:02:27.236Z,99041.51
2023-02-19T07:04:56.337Z,99038.60
2023-02-19T07:07:26.490Z,99034.15
2023-02-19T07:09:55.465Z,99034.00
2023-02-19T07:12:24.124Z,99038.06
2023-02-19T07:14:55.573Z,99043.00
2023-02-19T07:17:24.829Z,99037.38
2023-02-19T07:19:53.864Z,99041.71
2023-02-19T07:22:23.997Z,99030.55
2023-02-19T07:24:56.312Z,99033.63
2023-02-19T07:27:25.347Z,99037.68
2023-02-19T07:29:54.945Z,99045.79
2023-02-19T07:32:26.704Z,99050.77
2023-02-19T07:34:56.195Z,99054.35
2023-02-19T07:37:25.681Z,99064.79
2023-02-19T07:39:54.091Z,99057.67
2023-02-19T07:42:29.341Z,99058.24
2023-02-19T07:45:00.561Z,99060.98
2023-02-19T07:47:35.941Z,99064.58
2023-02-19T07:50:06.093Z,99065.60
2023-02-19T07:52:35.966Z,99062.88
2023-02-19T07:55:21.081Z,99059.66
2023-02-19T07:57:53.704Z,99060.33
2023-02-19T08:00:27.634Z,99059.98
2023-02-19T08:03:02.066Z,99054.82
2023-02-19T08:05:38.109Z,99060.84
2023-02-19T08:08:09.486Z,99061.98
2023-02-19T08:11:02.709Z,99059.53
2023-02-19T08:13:32.222Z,99064.23
2023-02-19T08:16:14.746Z,99061.05
2023-02-19T08:18:55.909Z,99062.44
2023-02-19T08:21:25.351Z,99062.70
2023-02-19T08:24:01.507Z,99061.85
2023-02-19T08:26:46.112Z,99065.33
2023-02-19T08:29:16.274Z,99067.80
2023-02-19T08:31:45.743Z,99071.36
2023-02-19T08:34:15.577Z,99074.27
2023-02-19T08:36:56.922Z,99071.31
2023-02-19T08:39:26.005Z,99065.61
2023-02-19T08:41:54.745Z,99065.52
2023-02-19T08:44:23.951Z,99065.17
2023-02-19T08:47:12.467Z,99066.67
2023-02-19T08:49:49.669Z,99064.55
2023-02-19T08:52:22.458Z,99062.06
2023-02-19T08:54:51.042Z,99063.38
2023-02-19T08:57:29.610Z,99067.90
2023-02-19T08:59:59.675Z,99068.96
2023-02-19T09:02:31.407Z,99066.75
2023-02-19T09:05:04.026Z,99064.98
2023-02-19T09:07:33.590Z,99068.30
2023-02-19T09:10:04.128Z,99073.92
2023-02-19T09:12:33.762Z,99070.91
2023-02-19T09:15:06.870Z,99065.63
2023-02-19T09:17:37.665Z,99066.75
2023-02-19T09:20:09.664Z,99057.01
2023-02-19T09:22:42.788Z,99053.04
2023-02-19T09:25:16.950Z,99051.15
2023-02-19T09:27:47.045Z,99047.42
2023-02-19T09:30:16.180Z,99050.77
2023-02-19T09:32:48.440Z,99053.36
2023-02-19T09:35:21.080Z,99054.48
2023-02-19T09:37:55.059Z,99061.27
2023-02-19T09:40:31.907Z,99064.66
2023-02-19T09:43:01.850Z,99066.31
2023-02-19T09:45:30.900Z,99065.36
2023-02-19T09:48:00.911Z,99064.20
2023-02-19T09:50:41.205Z,99069.25
2023-02-19T09:53:21.784Z,99060.59
2023-02-19T09:55:52.360Z,99056.52
2023-02-19T09:58:57.045Z,99049.20
2023-02-19T10:01:35.569Z,99045.83
2023-02-19T10:04:05.461Z,99049.90
2023-02-19T10:06:37.495Z,99057.91
2023-02-19T10:09:24.179Z,99054.26
2023-02-19T10:11:54.731Z,99049.73
2023-02-19T10:14:35.189Z,99051.16
2023-02-19T10:17:24.561Z,99041.08
2023-02-19T10:19:58.295Z,99038.05
2023-02-19T10:22:36.586Z,99034.59
2023-02-19T10:25:05.584Z,99027.48
2023-02-19T10:27:36.006Z,99020.88
2023-02-19T10:30:05.890Z,99016.41
2023-02-19T10:32:35.399Z,99014.68
2023-02-19T10:35:19.846Z,99005.50
2023-02-19T10:37:53.779Z,99003.11
2023-02-19T10:40:27.168Z,98998.16
2023-02-19T10:43:01.801Z,98992.45
2023-02-19T10:45:47.953Z,98984.48
2023-02-19T10:48:31.983Z,98975.54
2023-02-19T10:51:08.649Z,98968.93
2023-02-19T10:53:46.554Z,98961.59
2023-02-19T10:56:39.094Z,98959.56
2023-02-19T10:59:28.293Z,98962.55
2023-02-19T11:02:17.442Z,98960.76
2023-02-19T11:05:12.453Z,98959.73
2023-02-19T11:08:01.332Z,98952.91
2023-02-19T11:10:37.577Z,98956.31
2023-02-19T11:13:06.907Z,98946.48
2023-02-19T11:15:38.056Z,98948.20
2023-02-19T11:18:15.208Z,98938.09
2023-02-19T11:20:57.906Z,98928.61
2023-02-19T11:24:04.805Z,98931.05
2023-02-19T11:26:35.574Z,98933.11
2023-02-19T11:29:13.540Z,98923.11
2023-02-19T11:31:42.161Z,98918.77
2023-02-19T11:34:14.194Z,98919.93
2023-02-19T11:36:43.087Z,98911.35
2023-02-19T11:39:16.586Z,98909.48
2023-02-19T11:42:03.298Z,98911.25
2023-02-19T11:44:53.038Z,98909.98
2023-02-19T11:48:20.490Z,98921.83
2023-02-19T11:51:03.170Z,98923.52
2023-02-19T11:53:32.989Z,98923.39
2023-02-19T11:56:24.817Z,98916.10
2023-02-19T11:59:11.150Z,98919.23
2023-02-19T12:02:05.582Z,98915.94
2023-02-19T12:05:15.025Z,98925.57
2023-02-19T12:08:21.552Z,98929.79
2023-02-19T12:11:09.131Z,98928.73
2023-02-19T12:13:46.149Z,98932.97
2023-02-19T12:16:26.849Z,98937.05
2023-02-19T12:19:05.499Z,98933.73
2023-02-19T12:21:38.691Z,98936.70
2023-02-19T12:24:29.938Z,98935.09
2023-02-19T12:27:17.645Z,98924.07
2023-02-19T12:29:50.523Z,98925.14
2023-02-19T12:32:53.896Z,98922.91
2023-02-19T12:36:54.670Z,98923.73
2023-02-19T12:40:08.926Z,98921.79
2023-02-19T12:43:03.844Z,98923.10
2023-02-19T12:45:49.341Z,98923.89
2023-02-19T12:48:44.415Z,98925.85
2023-02-19T12:51:44.852Z,98923.48
2023-02-19T12:54:25.064Z,98925.10
2023-02-19T12:57:03.824Z,98929.04
2023-02-19T12:59:43.980Z,98932.35
2023-02-19T13:02:24.186Z,98929.58
2023-02-19T13:05:13.638Z,98929.80
2023-02-19T13:07:43.731Z,98930.60
2023-02-19T13:10:34.553Z,98931.17
2023-02-19T13:13:06.660Z,98928.41
2023-02-19T13:15:48.696Z,98930.52
2023-02-19T13:18:40.333Z,98931.60
2023-02-19T13:21:14.046Z,98928.54
2023-02-19T13:24:03.099Z,98928.48
2023-02-19T13:27:17.767Z,98927.67
2023-02-19T13:30:33.758Z,98926.48
2023-02-19T13:33:16.882Z,98924.85
2023-02-19T13:36:16.186Z,98921.46
2023-02-19T13:38:47.611Z,98921.02
2023-02-19T13:41:54.645Z,98921.69
2023-02-19T13:44:27.303Z,98922.23
2023-02-19T13:46:56.806Z,98925.23
2023-02-19T13:49:28.691Z,98923.66
2023-02-19T13:52:31.042Z,98929.52
2023-02-19T13:55:42.870Z,98928.49
2023-02-19T13:58:34.280Z,98927.81
2023-02-19T14:01:14.256Z,98923.77
2023-02-19T14:03:45.004Z,98925.73
2023-02-19T14:06:24.556Z,98929.71
2023-02-19T14:09:00.799Z,98933.90
2023-02-19T14:11:42.634Z,98931.02
2023-02-19T14:14:36.008Z,98934.27
2023-02-19T14:17:10.691Z,98933.90
2023-02-19T14:19:51.615Z,98936.09
2023-02-19T14:22:45.181Z,98929.95
2023-02-19T14:25:39.161Z,98935.15
2023-02-19T14:28:10.413Z,98934.96
2023-02-19T14:30:53.881Z,98934.50
2023-02-19T14:33:31.286Z,98939.65
2023-02-19T14:36:16.317Z,98938.42
2023-02-19T14:39:00.456Z,98943.17
2023-02-19T14:41:30.257Z,98943.81
2023-02-19T14:44:01.210Z,98948.66
2023-02-19T14:46:47.342Z,98948.52
2023-02-19T14:49:22.970Z,98946.48
2023-02-19T14:51:59.763Z,98943.69
2023-02-19T14:54:34.553Z,98944.14
2023-02-19T14:57:10.734Z,98942.56
2023-02-19T14:59:40.745Z,98943.56
2023-02-19T15:02:18.380Z,98947.99
2023-02-19T15:04:48.777Z,98941.05
2023-02-19T15:07:23.741Z,98948.79
2023-02-19T15:09:55.450Z,98952.83
2023-02-19T15:12:44.710Z,98949.73
2023-02-19T15:15:37.304Z,98957.27
2023-02-19T15:18:18.534Z,98961.81
2023-02-19T15:20:49.488Z,98961.27
2023-02-19T15:23:23.401Z,98960.94
2023-02-19T15:25:52.588Z,98964.64
2023-02-19T15:28:26.221Z,98964.23
2023-02-19T15:31:17.232Z,98966.80
2023-02-19T15:33:52.438Z,98966.05
2023-02-19T15:36:31.570Z,98967.13
2023-02-19T15:39:12.979Z,98967.78
2023-02-19T15:41:44.868Z,98971.86
2023-02-19T15:44:33.859Z,98972.38
2023-02-19T15:47:48.263Z,98974.46
2023-02-19T15:51:09.507Z,98977.37
2023-02-19T15:53:47.013Z,98982.46
2023-02-19T15:56:33.095Z,98981.36
2023-02-19T15:59:06.272Z,98983.27
2023-02-19T16:01:42.245Z,98984.41
2023-02-19T16:04:58.140Z,98981.83
2023-02-19T16:07:39.723Z,98986.96
2023-02-19T16:10:21.336Z,98988.74
2023-02-19T16:12:59.976Z,98992.30
2023-02-19T16:15:34.061Z,98989.98
2023-02-19T16:19:05.063Z,98991.64
2023-02-19T16:22:22.980Z,98988.59
2023-02-19T16:24:59.206Z,98986.70
2023-02-19T16:27:45.118Z,98984.38
2023-02-19T16:30:16.753Z,98982.16
2023-02-19T16:32:48.478Z,98984.04
2023-02-19T16:35:40.036Z,98983.55
2023-02-19T16:38:18.009Z,98980.29
2023-02-19T16:41:04.225Z,98982.15
2023-02-19T16:43:48.013Z,98981.54
2023-02-19T16:46:18.954Z,98974.38
2023-02-19T16:48:50.124Z,98969.58
2023-02-19T16:51:27.491Z,98971.19
2023-02-19T16:53:56.173Z,98969.19
2023-02-19T16:56:26.612Z,98965.89
2023-02-19T17:00:38.564Z,98969.25
2023-02-19T17:03:13.148Z,98974.33
2023-02-19T17:05:44.351Z,98979.69
2023-02-19T17:08:39.077Z,98982.54
2023-02-19T17:11:19.482Z,98979.84
2023-02-19T17:13:54.109Z,98982.90
2023-02-19T17:16:30.169Z,98987.05
2023-02-19T17:19:05.705Z,98989.42
2023-02-19T17:21:35.419Z,98992.57
2023-02-19T17:24:06.096Z,98996.02
2023-02-19T17:26:45.282Z,98998.42
2023-02-19T17:29:19.041Z,98996.84
2023-02-19T17:31:48.321Z,99001.52
2023-02-19T17:34:17.753Z,99005.23
2023-02-19T17:37:32.780Z,99010.02
2023-02-19T17:40:06.568Z,99012.64
2023-02-19T17:42:53.393Z,99010.16
2023-02-19T17:45:22.307Z,99017.47
2023-02-19T17:47:59.945Z,99025.27
2023-02-19T17:50:32.314Z,99029.73
2023-02-19T17:53:33.758Z,99038.21
2023-02-19T17:56:09.263Z,99050.73
2023-02-19T17:58:47.670Z,99043.88
2023-02-19T18:01:25.115Z,99040.81
2023-02-19T18:03:54.234Z,99039.98
2023-02-19T18:09:57.254Z,99044.46
2023-02-19T18:12:26.965Z,99046.30
2023-02-19T18:14:57.634Z,99048.23
2023-02-19T18:17:31.794Z,99049.64
2023-02-19T18:20:01.361Z,99057.08
2023-02-19T18:22:36.045Z,99058.20
2023-02-19T18:25:08.483Z,99058.98
2023-02-19T18:27:42.180Z,99062.27
2023-02-19T18:30:16.895Z,99059.66
2023-02-19T18:32:50.727Z,99065.00
2023-02-19T18:35:19.738Z,99066.29
2023-02-19T18:37:53.436Z,99062.64
2023-02-19T18:40:26.269Z,99067.82
2023-02-19T18:43:01.689Z,99061.91
2023-02-19T18:45:35.405Z,99061.23
2023-02-19T18:48:06.399Z,99062.94
2023-02-19T18:50:42.515Z,99063.70
2023-02-19T18:53:14.132Z,99059.52
2023-02-19T18:55:43.305Z,99065.02
2023-02-19T18:58:12.628Z,99085.56
2023-02-19T19:00:43.051Z,99099.56
2023-02-19T19:03:11.881Z,99103.27
2023-02-19T19:05:42.325Z,99107.50
2023-02-19T19:08:11.086Z,99104.95
2023-02-19T19:10:39.621Z,99100.70
2023-02-19T19:13:08.814Z,99103.59
2023-02-19T19:15:41.734Z,99099.92
2023-02-19T19:18:11.664Z,99104.52
2023-02-19T19:20:41.347Z,99104.37
2023-02-19T19:23:09.993Z,99102.44
2023-02-19T19:25:43.220Z,99107.84
2023-02-19T19:28:15.165Z,99116.20
2023-02-19T19:31:20.817Z,99120.46
2023-02-19T19:33:52.347Z,99128.65
2023-02-19T19:36:26.454Z,99127.56
2023-02-19T19:38:56.207Z,99132.27
2023-02-19T19:41:26.431Z,99130.90
2023-02-19T19:43:57.385Z,99134.70
2023-02-19T19:46:26.600Z,99138.13
2023-02-19T19:49:04.598Z,99139.85
2023-02-19T19:51:34.251Z,99143.68
2023-02-19T19:54:04.648Z,99144.61
2023-02-19T19:57:06.762Z,99143.11
2023-02-19T19:59:37.806Z,99144.63
2023-02-19T20:02:08.114Z,99154.70
2023-02-19T20:04:42.942Z,99157.33
2023-02-19T20:07:15.168Z,99161.55
2023-02-19T20:09:50.354Z,99161.41
2023-02-19T20:12:18.931Z,99162.84
2023-02-19T20:14:52.544Z,99164.00
2023-02-19T20:17:22.513Z,99167.86
2023-02-19T20:19:54.069Z,99166.75
2023-02-19T20:22:27.765Z,99173.08
2023-02-19T20:25:05.509Z,99177.94
2023-02-19T20:27:37.641Z,99182.13
2023-02-19T20:30:11.330Z,99184.34
2023-02-19T20:32:41.558Z,99179.05
2023-02-19T20:35:10.895Z,99178.04
2023-02-19T20:40:48.741Z,99186.45
2023-02-19T20:43:28.575Z,99192.86
2023-02-19T20:45:59.018Z,99193.85
2023-02-19T20:48:28.962Z,99195.44
2023-02-19T20:51:01.394Z,99195.44
2023-02-19T20:53:40.902Z,99199.17
2023-02-19T20:56:11.969Z,99199.30
2023-02-19T20:58:45.350Z,99205.58
2023-02-19T21:01:26.397Z,99212.33
2023-02-19T21:03:58.321Z,99211.90
2023-02-19T21:06:36.584Z,99210.67
2023-02-19T21:09:14.023Z,99214.27
2023-02-19T21:11:50.148Z,99208.48
2023-02-19T21:14:41.347Z,99210.86
2023-02-19T21:18:03.769Z,99217.65
2023-02-19T21:20:57.786Z,99221.12
2023-02-19T21:23:30.455Z,99221.52
2023-02-19T21:26:41.730Z,99221.73
2023-02-19T21:29:28.349Z,99228.60
2023-02-19T21:31:57.054Z,99228.02
2023-02-19T21:34:33.628Z,99224.31
2023-02-19T21:37:06.593Z,99228.24
2023-02-19T21:39:36.402Z,99229.83
2023-02-19T21:42:19.375Z,99231.76
2023-02-19T21:45:13.089Z,99234.23
2023-02-19T21:47:43.531Z,99235.05
2023-02-19T21:50:24.903Z,99240.52
2023-02-19T21:53:02.458Z,99241.09
2023-02-19T21:55:32.629Z,99245.00
2023-02-19T21:58:03.757Z,99244.28
2023-02-19T22:00:50.699Z,99244.95
2023-02-19T22:03:22.570Z,99242.94
2023-02-19T22:05:53.908Z,99241.44
2023-02-19T22:08:23.584Z,99244.52
2023-02-19T22:11:28.686Z,99244.07
2023-02-19T22:13:59.162Z,99246.30
2023-02-19T22:16:31.741Z,99248.02
2023-02-19T22:19:10.921Z,99253.64
2023-02-19T22:22:05.270Z,99250.97
2023-02-19T22:24:37.178Z,99252.04
2023-02-19T22:27:05.739Z,99258.23
2023-02-19T22:29:36.728Z,99259.65
2023-02-19T22:32:07.633Z,99261.68
2023-02-19T22:34:44.310Z,99262.76
2023-02-19T22:37:14.508Z,99262.58
2023-02-19T22:39:48.033Z,99264.27
2023-02-19T22:42:34.462Z,99266.22
2023-02-19T22:45:13.668Z,99269.59
2023-02-19T22:47:47.361Z,99266.64
2023-02-19T22:50:22.554Z,99268.41
2023-02-19T22:52:56.634Z,99268.34
2023-02-19T22:55:29.121Z,99266.11
2023-02-19T22:58:08.052Z,99266.19
2023-02-19T23:00:37.493Z,99267.56
2023-02-19T23:03:55.628Z,99266.34
2023-02-19T23:06:36.506Z,99273.28
2023-02-19T23:09:17.184Z,99275.88
2023-02-19T23:12:07.251Z,99274.34
2023-02-19T23:14:36.244Z,99272.13
2023-02-19T23:17:13.356Z,99264.90
2023-02-19T23:19:49.743Z,99272.79
2023-02-19T23:22:20.736Z,99274.93
2023-02-19T23:24:50.850Z,99273.25
2023-02-19T23:30:27.104Z,99279.01
2023-02-19T23:33:00.782Z,99279.05
2023-02-19T23:35:32.552Z,99286.05
2023-02-19T23:38:10.617Z,99290.70
2023-02-19T23:40:53.034Z,99291.58
2023-02-19T23:43:28.355Z,99289.77
2023-02-19T23:45:57.353Z,99287.33
2023-02-19T23:48:34.050Z,99284.45
2023-02-19T23:51:05.371Z,99284.40
2023-02-19T23:53:40.670Z,99287.25
2023-02-19T23:56:25.072Z,99290.06
2023-02-19T23:58:56.031Z,99292.94
